Time;durP1;ratioP1;P1;durP2;ratioP2;P2;SDS_P1;SDS_P2;PMS_P1;PMS_P2;Temp;Humidity;BMP_temperature;BMP_pressure;BME280_temperature;BME280_humidity;BME280_pressure;Samples;Min_cycle;Max_cycle;Signal;HPM_P1;HPM_P2
2022/06/27 00:00:10;;;;;;;720.05;664.65;;;18.20;99.90;;;;;;5113160;28;20085;-60
2022/06/27 00:02:40;;;;;;;723.65;671.13;;;18.20;99.90;;;;;;5112424;28;20075;-60
2022/06/27 00:05:07;;;;;;;772.97;712.83;;;18.20;99.90;;;;;;5095165;28;20086;-60
2022/06/27 00:07:33;;;;;;;665.08;611.88;;;18.20;99.90;;;;;;5112326;28;20075;-60
2022/06/27 00:09:59;;;;;;;736.65;683.72;;;18.20;99.90;;;;;;5113011;28;20047;-60
2022/06/27 00:12:25;;;;;;;839.28;761.55;;;18.20;99.90;;;;;;5095169;28;20361;-60
2022/06/27 00:14:51;;;;;;;573.28;521.90;;;18.20;99.90;;;;;;5112331;28;20036;-60
2022/06/27 00:17:17;;;;;;;1603.05;845.42;;;18.20;99.90;;;;;;5113384;28;20512;-60
2022/06/27 00:19:43;;;;;;;606.80;556.05;;;18.20;99.90;;;;;;5113043;28;20083;-60
2022/06/27 00:22:09;;;;;;;745.55;675.22;;;18.20;99.90;;;;;;5112002;28;20092;-60
2022/06/27 00:24:35;;;;;;;1674.22;907.42;;;18.20;99.90;;;;;;5092750;28;20044;-60
2022/06/27 00:27:01;;;;;;;769.90;706.90;;;18.20;99.90;;;;;;5100201;28;20496;-60
2022/06/27 00:29:27;;;;;;;556.90;513.03;;;18.10;99.90;;;;;;5093469;28;20035;-61
2022/06/27 00:31:53;;;;;;;536.10;493.55;;;18.10;99.90;;;;;;5113323;28;20051;-60
2022/06/27 00:34:19;;;;;;;1607.15;846.45;;;18.10;99.90;;;;;;5113227;28;20090;-60
2022/06/27 00:36:44;;;;;;;1313.75;785.97;;;18.10;99.90;;;;;;5111547;28;20469;-60
2022/06/27 00:39:10;;;;;;;492.35;447.17;;;18.10;99.90;;;;;;5112925;28;20059;-60
2022/06/27 00:41:36;;;;;;;1620.53;860.00;;;18.10;99.90;;;;;;5112898;28;20039;-61
2022/06/27 00:44:02;;;;;;;1999.90;999.90;;;18.00;99.90;;;;;;5093717;28;20059;-60
2022/06/27 00:46:29;;;;;;;1610.68;850.15;;;18.00;99.90;;;;;;5112657;28;20047;-60
2022/06/27 00:48:56;;;;;;;1999.90;999.90;;;18.00;99.90;;;;;;5095488;28;20043;-61
2022/06/27 00:51:24;;;;;;;903.40;617.30;;;18.00;99.90;;;;;;5116059;28;20123;-60
2022/06/27 00:53:52;;;;;;;464.17;420.10;;;18.00;99.90;;;;;;5116494;28;20096;-60
2022/06/27 00:56:18;;;;;;;560.58;515.97;;;18.00;99.90;;;;;;5116710;28;20039;-61
2022/06/27 00:58:44;;;;;;;710.10;652.72;;;17.90;99.90;;;;;;5097221;28;20055;-60
2022/06/27 01:01:10;;;;;;;762.55;695.78;;;17.90;99.90;;;;;;5098328;28;20050;-60
2022/06/27 01:03:36;;;;;;;836.33;765.38;;;17.90;99.90;;;;;;5098124;28;20075;-60
2022/06/27 01:06:03;;;;;;;670.97;623.25;;;17.90;99.90;;;;;;5115749;28;20047;-60
2022/06/27 01:08:29;;;;;;;687.95;633.22;;;17.90;99.90;;;;;;5116699;28;20051;-60
2022/06/27 01:10:55;;;;;;;585.22;532.90;;;17.80;99.90;;;;;;5097423;28;20044;-60
2022/06/27 01:13:22;;;;;;;564.20;513.08;;;17.80;99.90;;;;;;5115783;28;20047;-60
2022/06/27 01:15:49;;;;;;;641.78;590.22;;;17.80;99.90;;;;;;5098385;28;20039;-60
2022/06/27 01:18:15;;;;;;;1999.90;999.90;;;17.80;99.90;;;;;;5115864;28;20063;-60
2022/06/27 01:20:43;;;;;;;678.60;633.28;;;17.80;99.90;;;;;;5097524;28;20119;-60
2022/06/27 01:23:10;;;;;;;773.55;714.72;;;17.70;99.90;;;;;;5089376;28;20048;-60
2022/06/27 01:25:36;;;;;;;692.70;641.88;;;17.70;99.90;;;;;;5076989;28;20040;-60
2022/06/27 01:28:04;;;;;;;733.47;672.15;;;17.70;99.90;;;;;;5095297;28;20511;-61
2022/06/27 01:30:29;;;;;;;765.75;702.88;;;17.70;99.90;;;;;;5089846;28;20075;-60
2022/06/27 01:32:56;;;;;;;714.97;661.65;;;17.70;99.90;;;;;;5097200;28;20074;-60
2022/06/27 01:35:22;;;;;;;678.88;631.75;;;17.70;99.90;;;;;;5097686;28;20044;-60
2022/06/27 01:37:48;;;;;;;722.38;667.38;;;17.70;99.90;;;;;;5097792;28;20047;-60
2022/06/27 01:40:14;;;;;;;649.83;605.72;;;17.70;99.90;;;;;;5115112;28;20142;-60
2022/06/27 01:42:41;;;;;;;479.45;450.58;;;17.70;99.90;;;;;;5115562;28;20670;-60
2022/06/27 01:45:08;;;;;;;607.63;566.92;;;17.70;99.90;;;;;;5097883;28;20136;-61
2022/06/27 01:47:34;;;;;;;593.15;555.45;;;17.70;99.90;;;;;;5096359;28;20043;-60
2022/06/27 01:50:05;;;;;;;577.95;539.60;;;17.70;99.90;;;;;;5097225;28;20050;-60
2022/06/27 01:52:36;;;;;;;295.50;280.35;;;17.70;99.90;;;;;;5097409;28;20039;-60
2022/06/27 01:55:03;;;;;;;524.95;490.52;;;17.60;99.90;;;;;;5096132;28;20108;-60
2022/06/27 01:57:35;;;;;;;627.20;582.97;;;17.70;99.90;;;;;;5096806;28;20075;-60
2022/06/27 02:00:06;;;;;;;730.88;680.22;;;17.60;99.90;;;;;;5096349;28;20054;-60
2022/06/27 02:02:51;;;;;;;539.00;507.63;;;17.60;99.90;;;;;;5115440;28;20101;-60
2022/06/27 02:05:18;;;;;;;567.53;531.08;;;17.60;99.90;;;;;;5096720;28;20050;-60
2022/06/27 02:07:45;;;;;;;524.45;490.85;;;17.60;99.90;;;;;;5096652;28;20059;-60
2022/06/27 02:10:11;;;;;;;429.48;403.55;;;17.60;99.90;;;;;;5097179;28;20047;-60
2022/06/27 02:12:37;;;;;;;361.02;340.23;;;17.60;99.90;;;;;;5096790;28;20182;-60
2022/06/27 02:15:05;;;;;;;467.30;439.38;;;17.50;99.90;;;;;;5078960;28;20094;-60
2022/06/27 02:17:34;;;;;;;413.60;389.90;;;17.50;99.90;;;;;;5097025;28;20416;-60
2022/06/27 02:20:00;;;;;;;482.88;453.60;;;17.50;99.90;;;;;;5096843;28;20043;-60
2022/06/27 02:22:28;;;;;;;498.95;469.48;;;17.50;99.90;;;;;;5095027;28;20044;-60
2022/06/27 02:24:54;;;;;;;491.88;462.95;;;17.50;99.90;;;;;;5096785;28;20499;-60
2022/06/27 02:27:23;;;;;;;428.15;402.92;;;17.50;99.90;;;;;;5096817;28;20047;-60
2022/06/27 02:29:49;;;;;;;368.20;347.98;;;17.50;99.90;;;;;;5114397;28;20117;-60
2022/06/27 02:32:15;;;;;;;351.02;331.80;;;17.50;99.90;;;;;;5096211;28;20488;-60
2022/06/27 02:34:42;;;;;;;367.55;346.17;;;17.50;99.90;;;;;;5096694;28;20186;-60
2022/06/27 02:37:09;;;;;;;338.25;318.88;;;17.50;99.90;;;;;;5114423;28;20039;-60
2022/06/27 02:39:37;;;;;;;357.08;335.67;;;17.50;99.90;;;;;;5114820;28;20069;-60
2022/06/27 02:42:08;;;;;;;394.27;369.02;;;17.50;99.90;;;;;;5114114;28;20460;-60
2022/06/27 02:44:34;;;;;;;482.92;450.17;;;17.50;99.90;;;;;;5114685;28;20148;-60
2022/06/27 02:47:01;;;;;;;412.52;386.55;;;17.40;99.90;;;;;;5114662;28;20090;-60
2022/06/27 02:49:27;;;;;;;441.27;412.85;;;17.40;99.90;;;;;;5113495;28;20036;-60
2022/06/27 02:52:01;;;;;;;495.95;463.10;;;17.40;99.90;;;;;;5096620;28;20047;-60
2022/06/27 02:54:38;;;;;;;339.85;320.42;;;17.40;99.90;;;;;;5096054;28;20275;-60
2022/06/27 02:57:32;;;;;;;384.63;361.17;;;17.30;99.90;;;;;;5095370;28;20047;-60
2022/06/27 03:00:03;;;;;;;507.00;474.33;;;17.30;99.90;;;;;;5096454;28;20047;-60
2022/06/27 03:02:30;;;;;;;481.75;450.50;;;17.30;99.90;;;;;;5096410;28;20131;-60
2022/06/27 03:05:05;;;;;;;447.25;419.20;;;17.30;99.90;;;;;;5078374;28;20075;-60
2022/06/27 03:07:38;;;;;;;406.95;385.42;;;17.30;99.90;;;;;;5095699;28;20050;-60
2022/06/27 03:10:04;;;;;;;422.30;397.77;;;17.30;99.90;;;;;;5114252;28;20056;-60
2022/06/27 03:12:32;;;;;;;369.20;349.52;;;17.30;99.90;;;;;;5094784;28;20515;-60
2022/06/27 03:14:58;;;;;;;437.77;413.38;;;17.30;99.90;;;;;;5096230;28;20126;-60
2022/06/27 03:17:23;;;;;;;371.95;350.98;;;17.30;99.90;;;;;;5077603;28;20086;-60
2022/06/27 03:20:08;;;;;;;406.70;383.33;;;17.30;99.90;;;;;;5113743;28;20074;-60
2022/06/27 03:22:46;;;;;;;351.77;333.05;;;17.30;99.90;;;;;;5108796;28;20047;-60
2022/06/27 03:25:13;;;;;;;370.05;348.33;;;17.30;99.90;;;;;;5101107;28;20714;-60
2022/06/27 03:27:39;;;;;;;425.08;398.30;;;17.20;99.90;;;;;;5095660;28;20066;-60
2022/06/27 03:30:05;;;;;;;402.50;378.52;;;17.20;99.90;;;;;;5095599;28;20469;-60
2022/06/27 03:32:31;;;;;;;347.23;326.52;;;17.20;99.90;;;;;;5095065;28;20039;-60
2022/06/27 03:35:03;;;;;;;361.85;340.02;;;17.20;99.90;;;;;;5094862;28;20126;-60
2022/06/27 03:37:31;;;;;;;430.48;402.33;;;17.20;99.90;;;;;;5095764;28;20048;-60
2022/06/27 03:39:57;;;;;;;361.75;339.55;;;17.10;99.90;;;;;;5094878;28;20126;-60
2022/06/27 03:42:23;;;;;;;418.05;391.13;;;17.10;99.90;;;;;;5112918;28;20040;-60
2022/06/27 03:44:48;;;;;;;492.70;460.60;;;17.10;99.90;;;;;;5095691;28;20046;-60
2022/06/27 03:47:17;;;;;;;430.88;402.77;;;17.10;99.90;;;;;;5094809;28;20036;-60
2022/06/27 03:50:09;;;;;;;406.13;380.42;;;17.10;99.90;;;;;;5113513;28;20044;-60
2022/06/27 03:52:36;;;;;;;455.33;426.23;;;17.10;99.90;;;;;;5094058;28;20130;-60
2022/06/27 03:55:02;;;;;;;289.65;273.40;;;17.10;99.90;;;;;;5077773;28;20101;-60
2022/06/27 03:57:28;;;;;;;322.80;303.48;;;17.10;99.90;;;;;;5095485;28;20035;-60
2022/06/27 03:59:54;;;;;;;432.90;407.17;;;17.00;99.90;;;;;;5094379;28;20062;-60
2022/06/27 04:02:20;;;;;;;424.05;400.23;;;17.10;99.90;;;;;;5094848;28;20251;-60
2022/06/27 04:05:07;;;;;;;316.33;298.30;;;17.10;99.90;;;;;;5113528;28;20119;-60
2022/06/27 04:07:32;;;;;;;415.20;389.75;;;17.10;99.90;;;;;;5112838;28;20043;-60
2022/06/27 04:09:59;;;;;;;410.33;385.63;;;17.10;99.90;;;;;;5077337;28;20071;-60
2022/06/27 04:12:25;;;;;;;408.83;385.10;;;17.10;99.90;;;;;;5095041;28;20044;-60
2022/06/27 04:15:17;;;;;;;469.10;441.33;;;17.10;99.90;;;;;;5112299;28;20127;-60
2022/06/27 04:18:01;;;;;;;379.58;356.80;;;17.10;99.90;;;;;;5112624;28;20050;-60
2022/06/27 04:20:57;;;;;;;441.73;413.60;;;17.10;99.90;;;;;;5112125;28;20090;-60
2022/06/27 04:23:28;;;;;;;345.80;327.25;;;17.10;99.90;;;;;;5083839;28;20520;-60
2022/06/27 04:26:24;;;;;;;414.48;389.70;;;17.10;99.90;;;;;;5099349;28;20047;-60
2022/06/27 04:28:50;;;;;;;410.33;385.48;;;17.10;99.90;;;;;;5098277;28;20485;-60
2022/06/27 04:31:16;;;;;;;448.48;421.77;;;17.20;99.90;;;;;;5099185;28;20092;-60
2022/06/27 04:33:44;;;;;;;449.33;421.63;;;17.20;99.90;;;;;;5098909;28;20040;-60
2022/06/27 04:36:10;;;;;;;409.23;384.23;;;17.20;99.90;;;;;;5097995;28;20119;-60
2022/06/27 04:38:38;;;;;;;332.05;312.13;;;17.20;99.90;;;;;;5117111;28;20050;-60
2022/06/27 04:41:21;;;;;;;396.98;371.60;;;17.20;99.90;;;;;;5116769;28;20054;-60
2022/06/27 04:43:47;;;;;;;464.30;434.85;;;17.20;99.90;;;;;;5097658;28;20052;-60
2022/06/27 04:46:14;;;;;;;339.40;321.25;;;17.20;99.90;;;;;;5099062;28;20040;-60
2022/06/27 04:49:00;;;;;;;311.80;295.50;;;17.20;99.90;;;;;;5115794;28;20047;-60
2022/06/27 04:51:27;;;;;;;485.42;453.73;;;17.20;99.90;;;;;;5098742;28;20373;-60
2022/06/27 04:53:53;;;;;;;356.25;335.25;;;17.10;99.90;;;;;;5116696;28;20104;-60
2022/06/27 04:56:19;;;;;;;499.15;469.20;;;17.10;99.90;;;;;;5097524;28;20047;-60
2022/06/27 04:58:45;;;;;;;492.60;461.67;;;17.10;99.90;;;;;;5116947;28;20392;-60
2022/06/27 05:01:14;;;;;;;436.67;411.58;;;17.10;99.90;;;;;;5098722;28;20104;-60
2022/06/27 05:03:51;;;;;;;424.38;398.27;;;17.20;99.90;;;;;;5097342;28;20047;-60
2022/06/27 05:06:23;;;;;;;501.15;468.90;;;17.20;99.90;;;;;;5098394;28;20047;-60
2022/06/27 05:08:49;;;;;;;473.63;443.77;;;17.20;99.90;;;;;;5098114;28;20047;-60
2022/06/27 05:11:15;;;;;;;443.60;416.20;;;17.20;99.90;;;;;;5096912;28;20039;-60
2022/06/27 05:13:41;;;;;;;442.65;414.25;;;17.20;99.90;;;;;;5116527;28;20062;-60
2022/06/27 05:16:18;;;;;;;429.95;404.20;;;17.10;99.90;;;;;;5098428;28;20035;-60
2022/06/27 05:18:44;;;;;;;492.33;459.33;;;17.20;99.90;;;;;;5097541;28;20051;-60
2022/06/27 05:21:10;;;;;;;480.95;452.20;;;17.20;99.90;;;;;;5115920;28;20035;-60
2022/06/27 05:23:37;;;;;;;430.33;404.13;;;17.20;99.90;;;;;;5115627;28;20483;-60
2022/06/27 05:26:05;;;;;;;466.27;437.27;;;17.30;99.90;;;;;;5096654;28;20042;-60
2022/06/27 05:28:31;;;;;;;506.50;474.17;;;17.30;99.90;;;;;;5096960;28;20481;-60
2022/06/27 05:30:56;;;;;;;358.13;338.88;;;17.50;99.90;;;;;;5115190;28;20040;-60
2022/06/27 05:33:23;;;;;;;365.52;344.98;;;17.70;99.90;;;;;;5096953;28;20449;-60
2022/06/27 05:35:51;;;;;;;398.00;374.10;;;17.80;99.90;;;;;;5115396;28;20100;-60
2022/06/27 05:38:17;;;;;;;339.67;319.90;;;17.90;99.90;;;;;;5096412;28;20043;-60
2022/06/27 05:40:45;;;;;;;368.17;346.23;;;18.00;99.90;;;;;;5097123;28;20075;-60
2022/06/27 05:43:14;;;;;;;453.20;424.05;;;18.10;99.90;;;;;;5096932;28;20348;-60
2022/06/27 05:45:40;;;;;;;403.98;379.73;;;18.10;99.90;;;;;;5096171;28;20040;-60
2022/06/27 05:48:27;;;;;;;326.58;308.80;;;18.10;99.90;;;;;;5114577;28;20109;-60
2022/06/27 05:51:19;;;;;;;363.23;342.45;;;18.10;99.90;;;;;;5097256;28;20086;-60
2022/06/27 05:53:47;;;;;;;517.47;485.23;;;18.10;99.90;;;;;;5079488;28;20062;-60
2022/06/27 05:56:14;;;;;;;355.40;334.15;;;18.20;99.90;;;;;;5115175;28;20078;-60
2022/06/27 05:58:41;;;;;;;336.73;317.00;;;18.20;99.90;;;;;;5097531;28;20039;-60
2022/06/27 06:01:09;;;;;;;334.95;315.67;;;18.20;99.90;;;;;;5079466;28;20051;-60
2022/06/27 06:03:36;;;;;;;391.85;368.63;;;18.20;99.90;;;;;;5079915;28;20086;-60
2022/06/27 06:06:03;;;;;;;362.63;341.88;;;18.20;99.90;;;;;;5114551;28;20055;-60
2022/06/27 06:08:29;;;;;;;405.05;380.42;;;18.30;99.90;;;;;;5114471;28;20074;-60
2022/06/27 06:10:55;;;;;;;351.08;330.45;;;18.40;99.90;;;;;;5115268;28;20075;-60
2022/06/27 06:13:22;;;;;;;374.17;352.90;;;18.40;99.90;;;;;;5078357;28;20041;-60
2022/06/27 06:15:48;;;;;;;285.73;270.52;;;18.50;99.90;;;;;;5095861;28;20489;-59
2022/06/27 06:18:14;;;;;;;279.30;264.08;;;18.50;99.90;;;;;;5093701;28;20047;-60
2022/06/27 06:20:46;;;;;;;239.40;227.05;;;18.50;99.90;;;;;;5096388;28;20040;-60
2022/06/27 06:23:12;;;;;;;302.23;286.80;;;18.50;99.90;;;;;;5105294;28;20427;-60
2022/06/27 06:25:38;;;;;;;245.02;233.80;;;18.50;99.90;;;;;;5093597;28;20067;-60
2022/06/27 06:28:05;;;;;;;239.60;227.68;;;18.40;99.90;;;;;;5094046;28;20087;-60
2022/06/27 06:30:33;;;;;;;300.55;285.48;;;18.40;99.90;;;;;;5081438;28;20027;-60
2022/06/27 06:33:04;;;;;;;289.17;273.85;;;18.40;99.90;;;;;;5096934;28;20138;-60
2022/06/27 06:35:32;;;;;;;253.13;240.40;;;18.30;99.90;;;;;;5095732;28;20040;-60
2022/06/27 06:37:59;;;;;;;289.67;275.00;;;18.30;99.90;;;;;;5114604;28;20051;-60
2022/06/27 06:40:27;;;;;;;288.00;273.10;;;18.30;99.90;;;;;;5096131;28;20092;-60
2022/06/27 06:42:53;;;;;;;326.05;308.83;;;18.20;99.90;;;;;;5113871;28;20050;-60
2022/06/27 06:45:24;;;;;;;272.67;258.63;;;18.20;99.90;;;;;;5096366;28;20135;-60
2022/06/27 06:48:02;;;;;;;267.20;253.02;;;18.20;99.90;;;;;;5112472;28;20050;-60
2022/06/27 06:50:30;;;;;;;254.18;241.63;;;18.10;99.90;;;;;;5095678;28;20055;-60
2022/06/27 06:52:56;;;;;;;347.98;330.20;;;18.10;99.90;;;;;;5114289;28;20482;-60
2022/06/27 06:55:24;;;;;;;245.50;233.48;;;18.00;99.90;;;;;;5113549;28;20055;-60
2022/06/27 06:57:50;;;;;;;264.38;251.40;;;18.00;99.90;;;;;;5114032;28;20435;-60
2022/06/27 07:00:17;;;;;;;299.20;283.42;;;17.90;99.90;;;;;;5114032;28;20477;-60
2022/06/27 07:02:43;;;;;;;269.92;256.77;;;17.90;99.90;;;;;;5113594;28;20814;-60
2022/06/27 07:05:11;;;;;;;322.10;305.83;;;17.90;99.90;;;;;;5114502;28;20388;-60
2022/06/27 07:07:39;;;;;;;266.15;252.35;;;17.90;99.90;;;;;;5113459;28;20048;-60
2022/06/27 07:10:06;;;;;;;364.23;345.15;;;17.90;99.90;;;;;;5113517;28;20397;-60
2022/06/27 07:12:34;;;;;;;409.08;386.58;;;17.90;99.90;;;;;;5114112;28;20050;-60
2022/06/27 07:15:03;;;;;;;326.83;309.55;;;17.90;99.90;;;;;;5113629;28;20051;-60
2022/06/27 07:17:29;;;;;;;303.85;288.13;;;17.90;99.90;;;;;;5113342;28;20050;-60
2022/06/27 07:19:56;;;;;;;307.48;291.23;;;18.00;99.90;;;;;;5114125;28;20147;-60
2022/06/27 07:22:23;;;;;;;254.60;241.07;;;18.10;99.90;;;;;;5113678;28;20381;-60
2022/06/27 07:24:50;;;;;;;291.50;276.73;;;18.10;99.90;;;;;;5112674;28;20039;-60
2022/06/27 07:27:17;;;;;;;392.15;371.60;;;18.10;99.90;;;;;;5113633;28;20477;-60
2022/06/27 07:29:43;;;;;;;394.73;373.77;;;18.10;99.90;;;;;;5112670;28;20039;-60
2022/06/27 07:32:10;;;;;;;324.65;307.17;;;18.10;99.90;;;;;;5112672;28;20048;-60
2022/06/27 07:34:36;;;;;;;319.35;302.10;;;18.10;99.90;;;;;;5113818;28;20477;-60
2022/06/27 07:37:03;;;;;;;280.08;265.40;;;18.20;99.90;;;;;;5113340;28;20040;-60
2022/06/27 07:39:29;;;;;;;399.88;378.33;;;18.10;99.90;;;;;;5112561;28;20044;-60
2022/06/27 07:41:55;;;;;;;357.58;339.85;;;18.10;99.90;;;;;;5112552;28;20155;-60
2022/06/27 07:44:24;;;;;;;383.70;361.40;;;18.10;99.90;;;;;;5112995;28;20401;-60
2022/06/27 07:46:50;;;;;;;295.50;280.50;;;18.00;99.90;;;;;;5094469;28;20481;-60
2022/06/27 07:49:16;;;;;;;304.80;289.48;;;18.00;99.90;;;;;;5113116;28;20047;-60
2022/06/27 07:51:42;;;;;;;335.17;317.35;;;17.90;99.90;;;;;;5112636;28;20042;-60
2022/06/27 07:54:10;;;;;;;384.73;362.15;;;17.90;99.90;;;;;;5112978;28;20090;-60
2022/06/27 07:56:37;;;;;;;265.23;251.13;;;17.90;99.90;;;;;;5113375;28;20051;-60
2022/06/27 07:59:06;;;;;;;283.25;269.08;;;17.80;99.90;;;;;;5111521;28;20126;-60
2022/06/27 08:01:32;;;;;;;308.15;291.52;;;17.90;99.90;;;;;;5113042;28;20111;-60
2022/06/27 08:03:58;;;;;;;342.85;324.58;;;17.90;99.90;;;;;;5113842;28;20446;-60
2022/06/27 08:06:27;;;;;;;245.55;233.45;;;18.00;99.90;;;;;;5112757;28;20051;-60
2022/06/27 08:08:59;;;;;;;301.00;285.35;;;18.00;99.90;;;;;;5112827;28;20066;-60
2022/06/27 08:11:29;;;;;;;285.73;270.55;;;18.10;99.90;;;;;;5113541;28;20047;-60
2022/06/27 08:13:58;;;;;;;324.90;307.60;;;18.30;99.90;;;;;;5112554;28;20052;-60
2022/06/27 08:16:25;;;;;;;340.48;321.73;;;18.30;99.90;;;;;;5109030;28;20039;-59
2022/06/27 08:18:52;;;;;;;246.95;233.55;;;18.30;99.90;;;;;;5107277;28;20052;-60
2022/06/27 08:21:24;;;;;;;350.42;330.27;;;18.20;99.90;;;;;;5093326;28;20048;-60
2022/06/27 08:23:51;;;;;;;346.77;328.25;;;18.10;99.90;;;;;;5109774;28;20051;-60
2022/06/27 08:26:17;;;;;;;301.73;285.58;;;18.10;99.90;;;;;;5111328;28;20115;-60
2022/06/27 08:28:47;;;;;;;218.38;207.80;;;18.10;99.90;;;;;;5111705;28;20052;-60
2022/06/27 08:31:13;;;;;;;326.17;305.35;;;18.10;99.90;;;;;;5110217;28;20048;-60
2022/06/27 08:33:43;;;;;;;271.02;256.83;;;18.20;99.90;;;;;;5109079;28;20052;-60
2022/06/27 08:36:09;;;;;;;247.68;234.63;;;18.20;99.90;;;;;;5078467;28;20044;-60
2022/06/27 08:38:42;;;;;;;588.50;547.92;;;18.20;99.90;;;;;;5092387;28;20059;-60
2022/06/27 08:41:09;;;;;;;;;;;18.30;99.90;;;;;;5104482;28;20051;-60
2022/06/27 08:43:35;;;;;;;272.92;259.58;;;18.20;99.90;;;;;;5111111;28;19932;-60
2022/06/27 08:46:01;;;;;;;268.70;254.43;;;18.30;99.90;;;;;;5094303;28;20036;-60
2022/06/27 08:48:29;;;;;;;368.35;348.98;;;18.40;99.90;;;;;;5112131;28;20048;-60
2022/06/27 08:50:59;;;;;;;258.23;243.18;;;18.50;99.90;;;;;;5093639;28;20059;-60
2022/06/27 08:53:26;;;;;;;278.70;262.75;;;18.70;99.90;;;;;;5111720;28;20079;-60
2022/06/27 08:55:52;;;;;;;393.45;370.13;;;18.80;99.90;;;;;;5093252;28;20397;-59
2022/06/27 08:58:19;;;;;;;278.73;263.73;;;18.90;99.90;;;;;;5111959;28;20051;-60
2022/06/27 09:00:45;;;;;;;262.80;248.70;;;18.90;99.90;;;;;;5111531;28;20534;-60
2022/06/27 09:03:13;;;;;;;264.85;250.68;;;19.00;99.90;;;;;;5111757;28;20048;-59
2022/06/27 09:05:39;;;;;;;310.33;294.08;;;19.00;99.90;;;;;;5112663;28;20039;-59
2022/06/27 09:08:07;;;;;;;231.70;220.15;;;18.90;99.90;;;;;;5111692;28;20404;-60
2022/06/27 09:10:35;;;;;;;231.00;218.90;;;18.90;99.90;;;;;;5112807;28;20047;-60
2022/06/27 09:13:05;;;;;;;191.98;182.57;;;18.80;99.90;;;;;;5116426;28;20043;-60
2022/06/27 09:15:53;;;;;;;189.02;180.23;;;18.70;99.90;;;;;;5113563;28;20381;-60
2022/06/27 09:18:22;;;;;;;206.75;196.48;;;18.60;99.90;;;;;;5082736;28;20053;-60
2022/06/27 09:20:52;;;;;;;267.05;252.85;;;18.60;99.90;;;;;;5115579;28;20046;-60
2022/06/27 09:23:41;;;;;;;311.98;296.15;;;18.50;99.90;;;;;;5108490;28;20109;-59
2022/06/27 09:26:10;;;;;;;354.17;335.75;;;18.40;99.90;;;;;;5112322;28;20043;-60
2022/06/27 09:28:39;;;;;;;340.63;323.27;;;18.40;99.90;;;;;;5115150;28;20473;-60
2022/06/27 09:31:10;;;;;;;312.83;297.13;;;18.40;99.90;;;;;;5115165;28;20086;-60
2022/06/27 09:33:38;;;;;;;297.58;283.23;;;18.50;99.90;;;;;;5110000;28;20048;-60
2022/06/27 09:36:13;;;;;;;304.33;288.80;;;18.50;99.90;;;;;;5080464;28;20504;-60
2022/06/27 09:38:45;;;;;;;260.05;247.10;;;18.60;99.90;;;;;;5115144;28;20048;-60
2022/06/27 09:41:13;;;;;;;327.35;310.75;;;18.60;99.90;;;;;;5115812;28;20456;-60
2022/06/27 09:43:46;;;;;;;274.20;259.90;;;18.60;99.90;;;;;;5110675;28;20460;-60
2022/06/27 09:46:13;;;;;;;332.73;315.88;;;18.60;99.90;;;;;;5113922;28;20044;-60
2022/06/27 09:48:43;;;;;;;270.30;255.18;;;18.60;99.90;;;;;;5115280;28;20549;-60
2022/06/27 09:51:14;;;;;;;273.55;258.23;;;18.60;99.90;;;;;;5114539;28;20044;-60
2022/06/27 09:53:44;;;;;;;216.85;206.15;;;18.50;99.90;;;;;;5115059;28;20043;-60
2022/06/27 09:56:13;;;;;;;263.77;248.70;;;18.50;99.90;;;;;;5115420;28;20051;-60
2022/06/27 09:58:41;;;;;;;280.73;265.90;;;18.40;99.90;;;;;;5114418;28;20048;-60
2022/06/27 10:01:09;;;;;;;318.48;298.30;;;18.40;99.90;;;;;;5114683;28;20044;-60
2022/06/27 10:03:36;;;;;;;277.55;262.02;;;18.40;99.90;;;;;;5114973;28;20068;-60
2022/06/27 10:06:05;;;;;;;282.45;266.50;;;18.40;99.90;;;;;;5113864;28;20054;-60
2022/06/27 10:08:32;;;;;;;345.42;326.58;;;18.60;99.90;;;;;;5114858;28;20048;-60
2022/06/27 10:11:06;;;;;;;322.70;306.15;;;18.70;99.90;;;;;;5115492;28;20476;-60
2022/06/27 10:13:33;;;;;;;394.30;372.52;;;18.80;99.90;;;;;;5108541;28;20043;-60
2022/06/27 10:16:12;;;;;;;300.15;283.48;;;19.00;99.90;;;;;;5115371;28;20047;-60
2022/06/27 10:19:01;;;;;;;309.90;293.75;;;19.10;99.90;;;;;;5115031;28;20086;-60
2022/06/27 10:21:29;;;;;;;237.35;225.60;;;19.10;99.90;;;;;;5112638;28;20469;-60
2022/06/27 10:24:29;;;;;;;271.55;258.85;;;19.00;99.90;;;;;;5114743;28;20083;-60
2022/06/27 10:26:57;;;;;;;230.50;220.00;;;18.90;99.90;;;;;;5114283;28;20048;-60
2022/06/27 10:29:27;;;;;;;334.35;317.38;;;19.00;99.90;;;;;;5114234;28;20074;-60
2022/06/27 10:31:53;;;;;;;355.92;338.15;;;19.20;99.90;;;;;;5104623;28;20447;-60
2022/06/27 10:34:38;;;;;;;386.65;365.17;;;19.50;99.90;;;;;;5108625;28;20434;-60
2022/06/27 10:37:35;;;;;;;400.67;378.13;;;19.70;99.90;;;;;;5112973;28;20130;-60
2022/06/27 10:40:18;;;;;;;340.02;321.73;;;19.80;99.90;;;;;;5113925;28;20122;-60
2022/06/27 10:42:51;;;;;;;338.67;321.00;;;19.90;99.90;;;;;;5110319;28;20056;-60
2022/06/27 10:45:20;;;;;;;;;;;19.90;99.90;;;;;;5115040;28;20047;-60
2022/06/27 10:47:51;;;;;;;246.50;234.23;;;20.00;99.90;;;;;;5113226;28;19978;-60
2022/06/27 10:50:20;;;;;;;241.57;229.83;;;20.10;99.90;;;;;;5113524;28;20693;-60
2022/06/27 10:52:47;;;;;;;217.45;207.25;;;20.20;99.90;;;;;;5113755;28;20079;-60
2022/06/27 10:55:21;;;;;;;310.75;295.17;;;20.20;99.90;;;;;;5112488;28;20834;-60
2022/06/27 10:57:48;;;;;;;257.05;244.15;;;20.20;99.90;;;;;;5111501;28;20036;-60
2022/06/27 11:00:37;;;;;;;181.40;173.15;;;20.20;99.90;;;;;;5114051;28;20043;-60
2022/06/27 11:03:04;;;;;;;238.48;227.20;;;20.30;99.90;;;;;;5112951;28;20136;-60
2022/06/27 11:05:49;;;;;;;306.65;290.73;;;20.30;99.90;;;;;;5113204;28;20044;-60
2022/06/27 11:08:15;;;;;;;277.83;265.08;;;20.30;99.90;;;;;;5093905;28;20075;-60
2022/06/27 11:10:44;;;;;;;213.95;204.45;;;20.10;99.90;;;;;;5103116;28;20116;-60
2022/06/27 11:13:09;;;;;;;404.50;380.15;;;19.90;99.90;;;;;;5110170;28;20466;-60
2022/06/27 11:15:35;;;;;;;413.75;390.55;;;19.80;99.90;;;;;;5113127;28;20038;-60
2022/06/27 11:18:07;;;;;;;436.70;411.25;;;19.70;99.90;;;;;;5113776;28;20062;-60
2022/06/27 11:20:33;;;;;;;409.13;387.37;;;19.60;99.90;;;;;;5113980;28;20075;-60
2022/06/27 11:23:01;;;;;;;438.52;412.70;;;19.50;99.90;;;;;;5113111;28;20105;-60
2022/06/27 11:25:29;;;;;;;522.60;489.85;;;19.60;99.90;;;;;;5114190;28;20115;-60
2022/06/27 11:33:36;;;;;;;609.58;570.28;;;20.10;99.90;;;;;;5112117;28;20390;-60
2022/06/27 11:36:03;;;;;;;486.90;457.90;;;20.30;99.90;;;;;;5113496;28;20385;-60
2022/06/27 11:38:39;;;;;;;499.20;470.52;;;20.40;99.90;;;;;;5113130;28;20048;-60
2022/06/27 11:41:08;;;;;;;436.98;413.92;;;20.50;99.90;;;;;;5113569;28;20062;-59
2022/06/27 11:43:53;;;;;;;458.40;431.67;;;20.70;99.90;;;;;;5106308;28;20478;-60
2022/06/27 11:46:29;;;;;;;504.75;472.10;;;20.70;99.90;;;;;;5097081;28;20044;-60
2022/06/27 11:48:59;;;;;;;475.42;446.45;;;20.60;99.90;;;;;;5098768;28;20113;-60
2022/06/27 11:51:28;;;;;;;565.63;531.05;;;20.50;99.90;;;;;;5112931;28;20039;-60
2022/06/27 11:53:59;;;;;;;542.60;510.27;;;20.60;99.90;;;;;;5113556;28;20047;-60
2022/06/27 11:56:27;;;;;;;530.05;496.00;;;20.80;99.90;;;;;;5112561;28;20404;-60
2022/06/27 11:58:56;;;;;;;543.00;505.95;;;20.90;99.90;;;;;;5109709;28;20051;-60
2022/06/27 12:01:23;;;;;;;589.72;549.03;;;21.00;99.90;;;;;;5112910;28;20032;-60
2022/06/27 12:04:07;;;;;;;504.38;473.85;;;21.20;99.90;;;;;;5112976;28;20558;-60
2022/06/27 12:06:42;;;;;;;479.48;450.13;;;21.20;99.90;;;;;;5111370;28;20074;-60
2022/06/27 12:09:08;;;;;;;526.50;493.23;;;21.20;99.90;;;;;;5113298;28;20096;-60
2022/06/27 12:11:34;;;;;;;470.75;444.35;;;21.10;99.90;;;;;;5112608;28;20536;-60
2022/06/27 12:14:01;;;;;;;428.25;402.73;;;21.00;99.90;;;;;;5111713;28;20044;-59
2022/06/27 12:16:27;;;;;;;544.67;509.98;;;21.00;99.90;;;;;;5113053;28;20164;-60
2022/06/27 12:18:53;;;;;;;655.55;609.92;;;20.90;99.90;;;;;;5094269;28;20054;-60
2022/06/27 12:21:22;;;;;;;606.53;564.53;;;20.90;99.90;;;;;;5112794;28;20496;-60
2022/06/27 12:23:48;;;;;;;444.77;418.48;;;20.80;99.90;;;;;;5113022;28;20055;-60